createdAt,value
2024-02-15T00:00:07.204Z,87.06
2024-02-15T00:01:07.212Z,87.69
2024-02-15T00:02:07.193Z,87.09
2024-02-15T00:03:07.317Z,87.06
2024-02-15T00:04:07.309Z,88.54
2024-02-15T00:05:07.297Z,87.92
2024-02-15T00:06:07.370Z,89.17
2024-02-15T00:07:07.407Z,86.81
2024-02-15T00:08:07.373Z,84.64
2024-02-15T00:09:07.528Z,87.70
2024-02-15T00:10:07.434Z,84.18
2024-02-15T00:11:07.488Z,86.84
2024-02-15T00:12:07.614Z,84.36
2024-02-15T00:13:07.559Z,86.08
2024-02-15T00:14:07.569Z,85.74
2024-02-15T00:15:07.716Z,84.17
2024-02-15T00:16:07.627Z,84.42
2024-02-15T00:17:07.639Z,87.07
2024-02-15T00:18:07.817Z,86.19
2024-02-15T00:19:07.873Z,86.16
2024-02-15T00:20:07.710Z,84.30
2024-02-15T00:21:07.781Z,86.50
2024-02-15T00:22:07.772Z,85.62
2024-02-15T00:23:07.817Z,85.53
2024-02-15T00:24:07.928Z,83.84
2024-02-15T00:25:07.853Z,84.48
2024-02-15T00:26:07.898Z,85.54
2024-02-15T00:27:07.953Z,84.65
2024-02-15T00:28:07.926Z,86.12
2024-02-15T00:29:07.960Z,84.45
2024-02-15T00:30:08.074Z,84.20
2024-02-15T00:31:08.044Z,84.28
2024-02-15T00:32:08.002Z,84.78
2024-02-15T00:33:08.117Z,83.72
2024-02-15T00:34:08.248Z,85.77
2024-02-15T00:35:08.148Z,83.52
2024-02-15T00:36:08.284Z,84.53
2024-02-15T00:37:08.198Z,84.84
2024-02-15T00:38:08.242Z,83.80
2024-02-15T00:39:08.282Z,86.43
2024-02-15T00:40:08.239Z,83.59
2024-02-15T00:41:08.318Z,84.18
2024-02-15T00:42:08.329Z,83.37
2024-02-15T00:43:08.329Z,82.46
2024-02-15T00:44:08.478Z,82.65
2024-02-15T00:45:08.460Z,84.61
2024-02-15T00:46:08.406Z,84.39
2024-02-15T00:47:08.449Z,82.67
2024-02-15T00:48:08.655Z,81.59
2024-02-15T00:49:08.652Z,84.31
2024-02-15T00:50:08.718Z,80.18
2024-02-15T00:51:08.540Z,82.30
2024-02-15T00:52:08.556Z,83.89
2024-02-15T00:53:08.604Z,82.58
2024-02-15T00:54:08.785Z,84.23
2024-02-15T00:55:08.667Z,81.86
2024-02-15T00:56:08.645Z,84.15
2024-02-15T00:57:08.819Z,85.74
2024-02-15T00:58:08.859Z,82.55
2024-02-15T00:59:08.773Z,84.02
2024-02-15T01:00:08.857Z,81.00
2024-02-15T01:01:08.814Z,82.66
2024-02-15T01:02:08.838Z,82.51
2024-02-15T01:03:08.948Z,83.31
2024-02-15T01:04:09.063Z,82.56
2024-02-15T01:05:08.944Z,83.29
2024-02-15T01:06:08.992Z,81.47
2024-02-15T01:07:09.068Z,81.88
2024-02-15T01:08:09.010Z,83.54
2024-02-15T01:09:09.146Z,84.00
2024-02-15T01:10:09.061Z,82.59
2024-02-15T01:11:09.185Z,84.27
2024-02-15T01:12:09.277Z,83.96
2024-02-15T01:13:09.259Z,82.03
2024-02-15T01:14:09.213Z,83.09
2024-02-15T01:15:09.336Z,84.08
2024-02-15T01:16:09.417Z,82.86
2024-02-15T01:17:09.267Z,80.48
2024-02-15T01:18:09.404Z,77.84
2024-02-15T01:19:09.507Z,82.78
2024-02-15T01:20:09.376Z,82.05
2024-02-15T01:21:09.532Z,83.31
2024-02-15T01:22:09.428Z,82.10
2024-02-15T01:23:09.536Z,80.38
2024-02-15T01:24:09.598Z,82.22
2024-02-15T01:25:09.548Z,83.16
2024-02-15T01:26:09.570Z,82.85
2024-02-15T01:27:09.584Z,82.25
2024-02-15T01:28:09.620Z,81.95
2024-02-15T01:29:09.622Z,80.64
2024-02-15T01:30:09.957Z,81.73
2024-02-15T01:31:09.695Z,80.87
2024-02-15T01:32:09.702Z,80.67
2024-02-15T01:33:09.881Z,81.23
2024-02-15T01:34:09.830Z,79.96
2024-02-15T01:35:09.795Z,81.73
2024-02-15T01:36:09.886Z,81.23
2024-02-15T01:37:09.883Z,81.57
2024-02-15T01:38:09.900Z,81.18
2024-02-15T01:39:10.053Z,79.50
2024-02-15T01:40:10.000Z,81.46
2024-02-15T01:41:10.014Z,83.60
2024-02-15T01:42:10.104Z,82.27
2024-02-15T01:43:10.026Z,82.20
2024-02-15T01:44:10.092Z,80.69
2024-02-15T01:45:10.185Z,80.80
2024-02-15T01:46:10.145Z,81.88
2024-02-15T01:47:10.191Z,80.20
2024-02-15T01:48:10.381Z,81.17
2024-02-15T01:49:10.391Z,80.49
2024-02-15T01:50:10.272Z,80.53
2024-02-15T01:51:10.347Z,81.17
2024-02-15T01:52:10.338Z,80.36
2024-02-15T01:53:10.332Z,81.18
2024-02-15T01:54:10.406Z,79.78
2024-02-15T01:55:10.391Z,81.17
2024-02-15T01:56:10.481Z,78.51
2024-02-15T01:57:10.597Z,80.81
2024-02-15T01:58:10.531Z,80.25
2024-02-15T01:59:10.534Z,80.20
2024-02-15T02:00:10.604Z,80.03
2024-02-15T02:01:10.623Z,81.45
2024-02-15T02:02:10.620Z,81.00
2024-02-15T02:03:10.696Z,76.86
2024-02-15T02:04:10.739Z,79.28
2024-02-15T02:05:10.684Z,78.25
2024-02-15T02:06:10.788Z,80.82
2024-02-15T02:07:10.796Z,79.46
2024-02-15T02:08:10.887Z,78.45
2024-02-15T02:09:10.868Z,79.29
2024-02-15T02:10:10.846Z,81.40
2024-02-15T02:11:10.875Z,81.15
2024-02-15T02:12:11.092Z,79.81
2024-02-15T02:13:10.948Z,78.63
2024-02-15T02:14:10.964Z,79.55
2024-02-15T02:15:10.976Z,78.93
2024-02-15T02:16:11.035Z,78.76
2024-02-15T02:17:11.108Z,78.12
2024-02-15T02:18:11.175Z,79.57
2024-02-15T02:19:11.312Z,78.64
2024-02-15T02:20:11.297Z,77.69
2024-02-15T02:21:11.184Z,79.04
2024-02-15T02:22:11.198Z,79.69
2024-02-15T02:23:11.211Z,80.01
2024-02-15T02:24:11.323Z,76.92
2024-02-15T02:25:11.295Z,79.00
2024-02-15T02:26:11.348Z,76.30
2024-02-15T02:27:11.386Z,76.96
2024-02-15T02:28:11.350Z,77.92
2024-02-15T02:29:11.396Z,79.74
2024-02-15T02:30:11.517Z,75.88
2024-02-15T02:31:11.446Z,80.17
2024-02-15T02:32:11.488Z,79.79
2024-02-15T02:33:11.644Z,77.63
2024-02-15T02:34:12.063Z,76.88
2024-02-15T02:35:11.651Z,78.42
2024-02-15T02:36:11.639Z,80.23
2024-02-15T02:37:11.694Z,78.37
2024-02-15T02:38:11.733Z,76.68
2024-02-15T02:39:11.788Z,80.05
2024-02-15T02:40:11.768Z,79.85
2024-02-15T02:41:11.780Z,78.21
2024-02-15T02:42:11.898Z,77.64
2024-02-15T02:43:11.960Z,78.07
2024-02-15T02:44:11.937Z,77.24
2024-02-15T02:45:11.971Z,74.97
2024-02-15T02:46:12.029Z,76.86
2024-02-15T02:47:12.067Z,77.40
2024-02-15T02:48:12.254Z,77.85
2024-02-15T02:49:12.248Z,77.54
2024-02-15T02:50:12.143Z,79.26
2024-02-15T02:51:12.129Z,75.91
2024-02-15T02:52:12.201Z,76.81
2024-02-15T02:53:12.265Z,76.89
2024-02-15T02:54:12.321Z,79.03
2024-02-15T02:55:12.261Z,76.76
2024-02-15T02:56:12.325Z,77.23
2024-02-15T02:57:12.355Z,76.80
2024-02-15T02:58:12.368Z,78.14
2024-02-15T02:59:12.440Z,77.82
2024-02-15T03:00:12.446Z,78.62
2024-02-15T03:01:12.573Z,75.78
2024-02-15T03:02:12.519Z,77.89
2024-02-15T03:03:12.564Z,76.94
2024-02-15T03:04:12.585Z,78.07
2024-02-15T03:05:12.772Z,76.60
2024-02-15T03:06:12.691Z,77.07
2024-02-15T03:07:12.688Z,76.26
2024-02-15T03:08:12.700Z,78.15
2024-02-15T03:09:12.794Z,74.40
2024-02-15T03:10:12.812Z,78.32
2024-02-15T03:11:12.845Z,77.66
2024-02-15T03:12:12.953Z,76.79
2024-02-15T03:13:12.892Z,76.58
2024-02-15T03:14:12.903Z,76.74
2024-02-15T03:15:13.097Z,75.85
2024-02-15T03:16:13.003Z,77.73
2024-02-15T03:17:13.053Z,77.04
2024-02-15T03:18:13.201Z,75.46
2024-02-15T03:19:13.260Z,74.39
2024-02-15T03:20:13.128Z,76.95
2024-02-15T03:21:13.260Z,74.72
2024-02-15T03:22:13.184Z,74.94
2024-02-15T03:23:13.242Z,76.72
2024-02-15T03:24:13.254Z,75.40
2024-02-15T03:25:13.314Z,74.13
2024-02-15T03:26:13.351Z,73.45
2024-02-15T03:27:13.401Z,76.03
2024-02-15T03:28:13.448Z,77.00
2024-02-15T03:29:13.416Z,74.82
2024-02-15T03:30:13.505Z,75.12
2024-02-15T03:31:13.499Z,75.80
2024-02-15T03:32:13.573Z,74.13
2024-02-15T03:33:13.677Z,73.21
2024-02-15T03:34:13.778Z,74.96
2024-02-15T03:35:13.630Z,75.37
2024-02-15T03:36:13.768Z,75.13
2024-02-15T03:37:13.737Z,73.78
2024-02-15T03:38:13.789Z,75.38
2024-02-15T03:39:13.861Z,74.54
2024-02-15T03:40:13.866Z,74.84
2024-02-15T03:41:13.872Z,74.77
2024-02-15T03:42:13.990Z,75.43
2024-02-15T03:43:13.950Z,74.34
2024-02-15T03:44:14.009Z,74.99
2024-02-15T03:45:14.085Z,73.34
2024-02-15T03:46:14.104Z,75.63
2024-02-15T03:47:14.136Z,74.31
2024-02-15T03:48:14.243Z,75.83
2024-02-15T03:49:14.238Z,72.85
2024-02-15T03:50:14.262Z,73.48
2024-02-15T03:51:14.309Z,73.93
2024-02-15T03:52:14.332Z,73.62
2024-02-15T03:53:14.329Z,74.15
2024-02-15T03:54:14.378Z,74.03
2024-02-15T03:55:14.415Z,72.49
2024-02-15T03:56:14.457Z,74.61
2024-02-15T03:57:14.470Z,74.85
2024-02-15T03:58:14.502Z,71.99
2024-02-15T03:59:14.542Z,74.14
2024-02-15T04:00:14.768Z,73.44
2024-02-15T04:01:14.656Z,71.84
2024-02-15T04:02:14.639Z,71.38
2024-02-15T04:03:14.803Z,73.89
2024-02-15T04:04:14.785Z,73.20
2024-02-15T04:05:14.757Z,73.38
2024-02-15T04:06:14.874Z,72.69
2024-02-15T04:07:14.912Z,72.22
2024-02-15T04:08:14.898Z,73.71
2024-02-15T04:09:14.973Z,71.52
2024-02-15T04:10:15.012Z,71.82
2024-02-15T04:11:15.031Z,71.37
2024-02-15T04:12:15.178Z,73.17
2024-02-15T04:13:15.081Z,72.82
2024-02-15T04:14:15.145Z,73.52
2024-02-15T04:15:15.370Z,72.95
2024-02-15T04:16:15.161Z,72.83
2024-02-15T04:17:15.243Z,74.05
2024-02-15T04:18:15.319Z,74.48
2024-02-15T04:19:15.297Z,71.57
2024-02-15T04:20:15.400Z,72.12
2024-02-15T04:21:15.440Z,73.84
2024-02-15T04:22:15.392Z,73.31
2024-02-15T04:23:15.467Z,72.61
2024-02-15T04:24:15.558Z,71.37
2024-02-15T04:25:15.498Z,71.51
2024-02-15T04:26:15.585Z,72.56
2024-02-15T04:27:15.706Z,70.82
2024-02-15T04:28:15.644Z,72.66
2024-02-15T04:29:15.629Z,73.88
2024-02-15T04:30:15.797Z,73.50
2024-02-15T04:31:15.736Z,71.67
2024-02-15T04:32:15.764Z,71.86
2024-02-15T04:33:15.912Z,74.24
2024-02-15T04:34:23.362Z,50.00
2024-02-15T04:35:23.158Z,50.00
2024-02-15T04:36:23.157Z,50.00
2024-02-15T04:37:23.171Z,50.00
2024-02-15T04:38:23.178Z,50.00
2024-02-15T04:39:23.202Z,52.24
2024-02-15T04:40:23.190Z,52.01
2024-02-15T04:41:23.192Z,52.81
2024-02-15T04:42:23.161Z,55.42
2024-02-15T04:43:23.697Z,51.09
2024-02-15T04:44:23.185Z,50.58
2024-02-15T04:45:23.185Z,51.53
2024-02-15T04:46:23.195Z,50.54
2024-02-15T04:47:23.220Z,52.59
2024-02-15T04:48:23.223Z,52.25
2024-02-15T04:49:23.265Z,52.68
2024-02-15T04:50:23.157Z,52.36
2024-02-15T04:51:23.239Z,53.37
2024-02-15T04:52:23.161Z,54.01
2024-02-15T04:53:23.185Z,50.00
2024-02-15T04:54:23.201Z,53.19
2024-02-15T04:55:23.151Z,52.50
2024-02-15T04:56:23.162Z,53.94
2024-02-15T04:57:23.234Z,52.56
2024-02-15T04:58:23.150Z,51.16
2024-02-15T04:59:23.185Z,53.88
2024-02-15T05:00:23.209Z,53.23
2024-02-15T05:01:23.161Z,54.06
2024-02-15T05:02:23.180Z,53.81
2024-02-15T05:03:23.261Z,52.65
2024-02-15T05:04:23.207Z,52.33
2024-02-15T05:05:23.278Z,52.50
2024-02-15T05:06:23.290Z,50.28
2024-02-15T05:07:23.169Z,51.27
2024-02-15T05:08:23.177Z,50.89
2024-02-15T05:09:23.198Z,50.00
2024-02-15T05:10:23.227Z,52.39
2024-02-15T05:11:23.213Z,50.87
2024-02-15T05:12:23.203Z,52.84
2024-02-15T05:13:23.223Z,50.32
2024-02-15T05:14:23.232Z,50.91
2024-02-15T05:15:23.204Z,49.86
2024-02-15T05:16:23.242Z,51.80
2024-02-15T05:17:23.618Z,50.56
2024-02-15T05:18:23.387Z,50.41
2024-02-15T05:19:23.400Z,52.98
2024-02-15T05:20:23.374Z,51.27
2024-02-15T05:21:23.382Z,51.06
2024-02-15T05:22:23.481Z,52.30
2024-02-15T05:23:23.436Z,52.35
2024-02-15T05:24:23.576Z,51.77
2024-02-15T05:25:23.600Z,50.92
2024-02-15T05:26:23.568Z,51.13
2024-02-15T05:27:23.579Z,50.53
2024-02-15T05:28:23.632Z,50.61
2024-02-15T05:29:23.624Z,52.35
2024-02-15T05:30:23.710Z,52.91
2024-02-15T05:31:23.701Z,51.09
2024-02-15T05:32:23.774Z,50.12
2024-02-15T05:33:23.869Z,51.41
2024-02-15T05:34:24.540Z,52.61
2024-02-15T05:35:23.874Z,52.54
2024-02-15T05:36:23.946Z,53.13
2024-02-15T05:37:23.917Z,52.05
2024-02-15T05:38:23.970Z,51.00
2024-02-15T05:39:23.956Z,51.69
2024-02-15T05:40:24.016Z,51.97
2024-02-15T05:41:24.083Z,53.71
2024-02-15T05:42:24.137Z,55.40
2024-02-15T05:43:24.131Z,53.94
2024-02-15T05:44:24.242Z,52.65
2024-02-15T05:45:24.209Z,52.74
2024-02-15T05:46:24.275Z,50.59
2024-02-15T05:47:24.324Z,55.44
2024-02-15T05:48:24.467Z,52.58
2024-02-15T05:49:24.406Z,53.42
2024-02-15T05:50:24.424Z,52.33
2024-02-15T05:51:24.544Z,53.94
2024-02-15T05:52:24.502Z,54.22
2024-02-15T05:53:24.512Z,52.50
2024-02-15T05:54:24.679Z,55.07
2024-02-15T05:55:24.636Z,52.67
2024-02-15T05:56:24.643Z,54.16
2024-02-15T05:57:24.722Z,52.02
2024-02-15T05:58:24.749Z,54.72
2024-02-15T05:59:24.808Z,55.79
2024-02-15T06:00:24.967Z,54.66
2024-02-15T06:01:24.907Z,56.02
2024-02-15T06:02:24.937Z,53.86
2024-02-15T06:03:24.947Z,54.75
2024-02-15T06:04:25.076Z,57.32
2024-02-15T06:05:25.242Z,56.40
2024-02-15T06:06:25.165Z,55.34
2024-02-15T06:07:25.225Z,57.02
2024-02-15T06:08:25.128Z,56.82
2024-02-15T06:09:25.231Z,54.86
2024-02-15T06:10:25.238Z,55.78
2024-02-15T06:11:25.271Z,57.95
2024-02-15T06:12:25.326Z,57.46
2024-02-15T06:13:25.370Z,57.25
2024-02-15T06:14:25.445Z,57.92
2024-02-15T06:15:25.475Z,58.13
2024-02-15T06:16:25.497Z,57.98
2024-02-15T06:17:25.579Z,55.29
2024-02-15T06:18:25.783Z,58.14
2024-02-15T06:19:25.861Z,58.43
2024-02-15T06:20:25.694Z,59.06
2024-02-15T06:21:25.769Z,60.69
2024-02-15T06:22:25.799Z,60.82
2024-02-15T06:23:25.795Z,58.74
2024-02-15T06:24:25.873Z,59.04
2024-02-15T06:25:25.912Z,59.90
2024-02-15T06:26:25.974Z,60.36
2024-02-15T06:27:26.024Z,58.68
2024-02-15T06:28:26.037Z,62.31
2024-02-15T06:29:26.276Z,61.15
2024-02-15T06:30:26.150Z,60.77
2024-02-15T06:31:26.167Z,63.04
2024-02-15T06:32:26.229Z,61.80
2024-02-15T06:33:26.412Z,61.12
2024-02-15T06:34:26.330Z,61.82
2024-02-15T06:35:26.392Z,62.53
2024-02-15T06:36:26.411Z,60.73
2024-02-15T06:37:26.458Z,60.79
2024-02-15T06:38:26.524Z,61.63
2024-02-15T06:39:26.630Z,61.41
2024-02-15T06:40:26.579Z,63.01
2024-02-15T06:41:27.303Z,63.38
2024-02-15T06:42:26.677Z,63.67
2024-02-15T06:43:26.706Z,61.67
2024-02-15T06:44:26.763Z,59.90
2024-02-15T06:45:26.815Z,59.29
2024-02-15T06:46:26.831Z,61.57
2024-02-15T06:47:26.899Z,62.36
2024-02-15T06:48:27.052Z,62.95
2024-02-15T06:49:27.082Z,63.42
2024-02-15T06:50:27.017Z,62.83
2024-02-15T06:51:27.164Z,62.82
2024-02-15T06:52:27.136Z,62.70
2024-02-15T06:53:27.183Z,63.68
2024-02-15T06:54:27.292Z,63.76
2024-02-15T06:55:27.255Z,64.52
2024-02-15T06:56:27.313Z,63.22
2024-02-15T06:57:27.375Z,60.89
2024-02-15T06:58:27.418Z,64.78
2024-02-15T06:59:27.479Z,62.53
2024-02-15T07:00:27.606Z,62.19
2024-02-15T07:01:27.546Z,61.01
2024-02-15T07:02:27.602Z,64.72
2024-02-15T07:03:27.653Z,63.52
2024-02-15T07:04:27.759Z,62.99
2024-02-15T07:05:27.775Z,63.41
2024-02-15T07:06:27.887Z,63.33
2024-02-15T07:07:27.890Z,64.44
2024-02-15T07:08:27.903Z,63.14
2024-02-15T07:09:28.030Z,64.62
2024-02-15T07:10:27.960Z,64.14
2024-02-15T07:11:28.020Z,63.67
2024-02-15T07:12:28.115Z,64.84
2024-02-15T07:13:28.421Z,63.86
2024-02-15T07:14:28.213Z,64.02
2024-02-15T07:15:28.276Z,63.11
2024-02-15T07:16:28.273Z,63.29
2024-02-15T07:17:28.354Z,63.35
2024-02-15T07:18:29.731Z,63.56
2024-02-15T07:19:28.747Z,62.25
2024-02-15T07:20:28.450Z,63.45
2024-02-15T07:21:28.503Z,63.08
2024-02-15T07:22:28.572Z,63.52
2024-02-15T07:23:28.574Z,65.87
2024-02-15T07:24:29.010Z,62.88
2024-02-15T07:25:28.681Z,63.49
2024-02-15T07:26:28.723Z,64.01
2024-02-15T07:27:28.833Z,63.01
2024-02-15T07:28:28.802Z,63.42
2024-02-15T07:29:28.900Z,63.76
2024-02-15T07:30:28.995Z,63.02
2024-02-15T07:31:28.983Z,63.72
2024-02-15T07:32:29.049Z,61.52
2024-02-15T07:33:29.148Z,65.16
2024-02-15T07:34:29.181Z,63.05
2024-02-15T07:36:29.237Z,63.94
2024-02-15T07:37:29.231Z,63.09
2024-02-15T07:38:29.338Z,61.60
2024-02-15T07:39:29.427Z,64.53
2024-02-15T07:40:29.372Z,62.80
2024-02-15T07:41:29.444Z,63.79
2024-02-15T07:42:29.467Z,62.95
2024-02-15T07:43:29.527Z,64.61
2024-02-15T07:44:29.588Z,65.03
2024-02-15T07:45:29.704Z,60.65
2024-02-15T07:46:29.647Z,63.62
2024-02-15T07:47:31.374Z,63.64
2024-02-15T07:48:29.837Z,62.66
2024-02-15T07:49:30.001Z,65.49
2024-02-15T07:50:29.670Z,66.18
2024-02-15T07:51:29.765Z,63.69
2024-02-15T07:52:29.683Z,63.22
2024-02-15T07:53:29.696Z,61.48
2024-02-15T07:54:29.793Z,63.49
2024-02-15T07:55:29.716Z,63.67
2024-02-15T07:56:29.711Z,62.47
2024-02-15T07:57:29.720Z,64.18
2024-02-15T07:58:29.685Z,63.27
2024-02-15T07:59:29.795Z,63.81
2024-02-15T08:00:29.794Z,60.90
2024-02-15T08:01:29.789Z,63.29
2024-02-15T08:02:29.742Z,62.29
2024-02-15T08:03:29.676Z,61.14
2024-02-15T08:04:29.844Z,62.01
2024-02-15T08:05:29.792Z,60.62
2024-02-15T08:06:30.353Z,61.22
2024-02-15T08:07:29.737Z,61.22
2024-02-15T08:08:29.691Z,61.18
2024-02-15T08:09:29.871Z,62.68
2024-02-15T08:10:29.697Z,63.81
2024-02-15T08:11:29.709Z,62.18
2024-02-15T08:12:29.722Z,60.51
2024-02-15T08:13:29.756Z,62.82
2024-02-15T08:14:29.791Z,60.24
2024-02-15T08:15:29.928Z,60.29
2024-02-15T08:16:29.724Z,60.18
2024-02-15T08:17:29.763Z,62.94
2024-02-15T08:18:29.979Z,60.96
2024-02-15T08:19:29.933Z,59.93
2024-02-15T08:20:29.740Z,60.28
2024-02-15T08:21:29.721Z,61.03
2024-02-15T08:22:29.760Z,61.59
2024-02-15T08:23:29.773Z,62.81
2024-02-15T08:24:29.781Z,62.85
2024-02-15T08:25:29.714Z,61.02
2024-02-15T08:26:29.731Z,59.90
2024-02-15T08:27:29.711Z,62.62
2024-02-15T08:28:29.726Z,60.75
2024-02-15T08:29:29.729Z,61.06
2024-02-15T08:30:29.754Z,59.99
2024-02-15T08:31:29.749Z,60.72
2024-02-15T08:32:29.752Z,61.92
2024-02-15T08:33:30.241Z,61.68
2024-02-15T08:34:29.790Z,60.75
2024-02-15T08:35:29.874Z,62.40
2024-02-15T08:36:29.782Z,63.03
2024-02-15T08:37:29.733Z,63.66
2024-02-15T08:38:29.736Z,61.58
2024-02-15T08:39:29.739Z,63.02
2024-02-15T08:40:29.747Z,61.03
2024-02-15T08:41:29.818Z,61.06
2024-02-15T08:42:29.793Z,63.50
2024-02-15T08:43:29.726Z,62.25
2024-02-15T08:44:29.783Z,60.82
2024-02-15T08:45:29.836Z,60.74
2024-02-15T08:46:29.743Z,62.89
2024-02-15T08:47:29.745Z,61.32
2024-02-15T08:48:29.847Z,59.81
2024-02-15T08:49:29.815Z,60.49
2024-02-15T08:50:29.804Z,60.03
2024-02-15T08:51:29.836Z,61.44
2024-02-15T08:52:29.788Z,60.88
2024-02-15T08:53:29.757Z,63.54
2024-02-15T08:54:29.777Z,61.03
2024-02-15T08:55:29.756Z,61.91
2024-02-15T08:56:29.782Z,62.58
2024-02-15T08:57:29.782Z,59.40
2024-02-15T08:58:29.754Z,60.91
2024-02-15T08:59:29.820Z,59.57
2024-02-15T09:00:29.823Z,61.57
2024-02-15T09:01:29.782Z,60.02
2024-02-15T09:02:29.752Z,62.46
2024-02-15T09:03:29.886Z,60.71
2024-02-15T09:04:29.785Z,61.04
2024-02-15T09:05:29.758Z,59.95
2024-02-15T09:06:29.856Z,60.40
2024-02-15T09:07:29.849Z,61.96
2024-02-15T09:08:29.797Z,59.71
2024-02-15T09:09:29.819Z,60.27
2024-02-15T09:10:29.813Z,60.10
2024-02-15T09:11:29.806Z,60.88
2024-02-15T09:12:29.850Z,60.98
2024-02-15T09:13:29.805Z,61.18
2024-02-15T09:14:29.789Z,60.50
2024-02-15T09:15:29.877Z,61.91
2024-02-15T09:16:29.819Z,60.57
2024-02-15T09:17:29.823Z,61.96
2024-02-15T09:18:29.930Z,59.91
2024-02-15T09:19:29.831Z,60.16
2024-02-15T09:20:29.807Z,59.61
2024-02-15T09:21:29.790Z,60.04
2024-02-15T09:22:29.766Z,60.66
2024-02-15T09:23:29.796Z,60.86
2024-02-15T09:24:29.802Z,61.12
2024-02-15T09:25:29.868Z,60.48
2024-02-15T09:26:29.820Z,59.22
2024-02-15T09:27:29.786Z,59.63
2024-02-15T09:28:29.794Z,60.24
2024-02-15T09:29:29.811Z,61.13
2024-02-15T09:30:29.832Z,60.52
2024-02-15T09:31:29.805Z,62.09
2024-02-15T09:32:29.800Z,62.11
2024-02-15T09:33:29.907Z,59.51
2024-02-15T09:34:29.993Z,60.24
2024-02-15T09:35:50.875Z,61.13
2024-02-15T09:36:29.913Z,61.32
2024-02-15T09:37:29.829Z,62.01
2024-02-15T09:38:29.813Z,63.63
2024-02-15T09:39:29.872Z,63.71
2024-02-15T09:40:29.904Z,66.04
2024-02-15T09:41:29.887Z,66.90
2024-02-15T09:42:29.838Z,63.04
2024-02-15T09:43:29.790Z,64.24
2024-02-15T09:44:29.810Z,64.96
2024-02-15T09:45:30.057Z,62.89
2024-02-15T09:46:32.333Z,62.25
2024-02-15T09:47:29.839Z,62.35
2024-02-15T09:48:29.915Z,62.69
2024-02-15T09:49:30.028Z,62.15
2024-02-15T09:50:29.813Z,62.39
2024-02-15T09:51:29.814Z,62.33
2024-02-15T09:52:31.748Z,63.07
2024-02-15T09:53:29.871Z,59.51
2024-02-15T09:54:29.846Z,62.50
2024-02-15T09:55:29.841Z,60.70
2024-02-15T09:56:29.855Z,63.39
2024-02-15T09:57:29.833Z,61.93
2024-02-15T09:58:32.963Z,61.21
2024-02-15T09:59:30.865Z,60.10
2024-02-15T10:00:29.857Z,61.40
2024-02-15T10:01:29.849Z,60.22
2024-02-15T10:02:29.837Z,60.49
2024-02-15T10:03:29.861Z,60.96
2024-02-15T10:04:29.833Z,63.76
2024-02-15T10:05:29.890Z,64.12
2024-02-15T10:06:29.913Z,63.65
2024-02-15T10:07:29.836Z,64.56
2024-02-15T10:08:29.842Z,65.98
2024-02-15T10:09:29.901Z,64.24
2024-02-15T10:10:29.953Z,66.33
2024-02-15T10:11:30.025Z,66.54
2024-02-15T10:12:30.010Z,67.86
2024-02-15T10:13:30.066Z,67.30
2024-02-15T10:14:30.077Z,67.41
2024-02-15T10:15:32.311Z,66.68
2024-02-15T10:16:30.143Z,67.80
2024-02-15T10:17:30.163Z,68.47
2024-02-15T10:18:30.197Z,67.36
2024-02-15T10:19:30.165Z,67.79
2024-02-15T10:20:30.123Z,66.73
2024-02-15T10:21:30.241Z,67.84
2024-02-15T10:22:30.133Z,68.08
2024-02-15T10:23:30.160Z,69.49
2024-02-15T10:24:30.163Z,69.17
2024-02-15T10:25:30.171Z,67.07
2024-02-15T10:26:30.166Z,67.70
2024-02-15T10:27:30.152Z,69.11
2024-02-15T10:28:30.201Z,67.50
2024-02-15T10:29:30.179Z,68.08
2024-02-15T10:30:30.139Z,68.00
2024-02-15T10:31:30.170Z,68.92
2024-02-15T10:32:30.220Z,69.70
2024-02-15T10:33:30.341Z,68.28
2024-02-15T10:34:30.452Z,68.41
2024-02-15T10:35:30.174Z,66.70
2024-02-15T10:36:30.215Z,68.80
2024-02-15T10:37:30.213Z,69.77
2024-02-15T10:38:30.144Z,69.25
2024-02-15T10:39:30.210Z,69.17
2024-02-15T10:40:30.167Z,67.92
2024-02-15T10:41:30.212Z,69.21
2024-02-15T10:42:30.339Z,69.96
2024-02-15T10:43:30.187Z,69.49
2024-02-15T10:44:30.196Z,67.04
2024-02-15T10:45:30.239Z,69.15
2024-02-15T10:46:30.172Z,68.71
2024-02-15T10:47:30.231Z,67.90
2024-02-15T10:48:30.301Z,68.61
2024-02-15T10:49:30.273Z,68.90
2024-02-15T10:50:30.197Z,69.67
2024-02-15T10:51:30.251Z,69.55
2024-02-15T10:52:30.204Z,68.02
2024-02-15T10:53:30.184Z,68.97
2024-02-15T10:54:30.226Z,68.51
2024-02-15T10:55:30.309Z,70.40
2024-02-15T10:56:30.370Z,70.40
2024-02-15T10:57:30.498Z,69.78
2024-02-15T10:58:30.524Z,72.61
2024-02-15T10:59:30.558Z,72.42
2024-02-15T11:00:30.693Z,72.80
2024-02-15T11:01:30.782Z,71.97
2024-02-15T11:02:30.968Z,70.31
2024-02-15T11:03:30.866Z,72.94
2024-02-15T11:04:30.899Z,70.90
2024-02-15T11:05:31.140Z,71.50
2024-02-15T11:06:31.215Z,73.83
2024-02-15T11:07:32.360Z,74.26
2024-02-15T11:08:31.176Z,72.37
2024-02-15T11:09:31.222Z,73.54
2024-02-15T11:10:31.459Z,73.21
2024-02-15T11:11:31.401Z,75.56
2024-02-15T11:12:31.464Z,75.24
2024-02-15T11:13:31.496Z,77.05
2024-02-15T11:14:31.588Z,77.04
2024-02-15T11:15:31.708Z,77.88
2024-02-15T11:16:31.812Z,74.96
2024-02-15T11:17:31.819Z,76.51
2024-02-15T11:18:32.010Z,76.82
2024-02-15T11:19:31.994Z,73.41
2024-02-15T11:20:32.036Z,74.83
2024-02-15T11:21:32.079Z,75.78
2024-02-15T11:22:32.145Z,75.70
2024-02-15T11:23:36.251Z,74.80
2024-02-15T11:24:33.270Z,74.85
2024-02-15T11:25:32.200Z,74.84
2024-02-15T11:26:32.215Z,74.40
2024-02-15T11:27:32.237Z,72.66
2024-02-15T11:28:32.227Z,74.91
2024-02-15T11:29:32.193Z,76.04
2024-02-15T11:30:32.236Z,74.85
2024-02-15T11:31:34.408Z,74.16
2024-02-15T11:32:32.222Z,74.87
2024-02-15T11:33:32.343Z,75.58
2024-02-15T11:34:32.291Z,74.55
2024-02-15T11:35:32.285Z,73.12
2024-02-15T11:36:32.264Z,74.02
2024-02-15T11:37:33.633Z,71.39
2024-02-15T11:38:32.264Z,71.54
2024-02-15T11:39:32.268Z,71.88
2024-02-15T11:40:32.276Z,73.18
2024-02-15T11:41:32.239Z,72.32
2024-02-15T11:42:32.222Z,74.47
2024-02-15T11:43:33.735Z,73.05
2024-02-15T11:44:32.225Z,73.14
2024-02-15T11:45:32.305Z,73.41
2024-02-15T11:46:32.444Z,73.31
2024-02-15T11:47:32.282Z,71.34
2024-02-15T11:48:32.330Z,72.77
2024-02-15T11:49:32.399Z,72.56
2024-02-15T11:50:32.246Z,71.00
2024-02-15T11:51:32.392Z,73.88
2024-02-15T11:52:32.259Z,74.07
2024-02-15T11:53:32.260Z,73.16
2024-02-15T11:54:32.264Z,74.86
2024-02-15T11:55:32.288Z,72.46
2024-02-15T11:56:32.286Z,72.27
2024-02-15T11:57:32.323Z,75.78
2024-02-15T11:58:32.253Z,73.30
2024-02-15T11:59:32.244Z,72.97
2024-02-15T12:00:32.246Z,69.48
2024-02-15T12:01:32.244Z,72.06
2024-02-15T12:02:32.280Z,70.96
2024-02-15T12:03:32.270Z,68.39
2024-02-15T12:04:32.236Z,69.75
2024-02-15T12:05:32.259Z,71.35
2024-02-15T12:06:32.353Z,72.48
2024-02-15T12:07:32.287Z,69.09
2024-02-15T12:08:32.261Z,73.63
2024-02-15T12:09:32.274Z,72.29
2024-02-15T12:10:32.272Z,71.57
2024-02-15T12:11:32.333Z,68.12
2024-02-15T12:12:32.326Z,70.86
2024-02-15T12:13:32.231Z,72.99
2024-02-15T12:14:32.228Z,72.24
2024-02-15T12:15:34.079Z,68.47
2024-02-15T12:16:32.260Z,72.56
2024-02-15T12:17:32.324Z,70.58
2024-02-15T12:18:32.337Z,71.48
2024-02-15T12:19:32.319Z,73.79
2024-02-15T12:20:32.251Z,73.90
2024-02-15T12:21:32.293Z,74.27
2024-02-15T12:22:32.247Z,74.37
2024-02-15T12:23:32.265Z,72.63
2024-02-15T12:24:32.439Z,70.80
2024-02-15T12:25:32.274Z,73.30
2024-02-15T12:26:32.278Z,74.22
2024-02-15T12:27:32.294Z,70.40
2024-02-15T12:28:32.318Z,70.44
2024-02-15T12:29:32.304Z,73.28
2024-02-15T12:30:32.313Z,73.97
2024-02-15T12:31:32.268Z,75.08
2024-02-15T12:32:32.283Z,74.18
2024-02-15T12:33:32.331Z,74.19
2024-02-15T12:34:32.280Z,74.25
2024-02-15T12:35:32.276Z,73.92
2024-02-15T12:36:32.319Z,74.44
2024-02-15T12:37:32.339Z,73.99
2024-02-15T12:38:32.278Z,74.05
2024-02-15T12:39:32.356Z,74.01
2024-02-15T12:40:32.278Z,74.45
2024-02-15T12:41:32.293Z,73.74
2024-02-15T12:42:32.355Z,75.16
2024-02-15T12:43:32.257Z,77.00
2024-02-15T12:44:32.264Z,75.46
2024-02-15T12:45:32.402Z,76.78
2024-02-15T12:46:32.337Z,73.49
2024-02-15T12:47:32.388Z,76.29
2024-02-15T12:48:32.378Z,74.96
2024-02-15T12:49:32.341Z,77.54
2024-02-15T12:50:32.275Z,78.11
2024-02-15T12:51:33.998Z,75.80
2024-02-15T12:52:32.298Z,73.69
2024-02-15T12:53:32.295Z,77.50